createdAt,value
2018-09-19T00:01:17.061Z,8.00
2018-09-19T00:03:44.504Z,7.50
2018-09-19T00:06:11.903Z,7.75
2018-09-19T00:08:39.337Z,6.78
2018-09-19T00:11:06.772Z,7.25
2018-09-19T00:13:34.238Z,6.47
2018-09-19T00:16:02.364Z,7.05
2018-09-19T00:18:29.821Z,7.37
2018-09-19T00:20:57.330Z,7.20
2018-09-19T00:23:24.796Z,6.87
2018-09-19T00:25:52.248Z,6.37
2018-09-19T00:28:19.707Z,6.12
2018-09-19T00:30:47.161Z,7.85
2018-09-19T00:33:14.612Z,6.80
2018-09-19T00:35:42.049Z,6.97
2018-09-19T00:38:09.475Z,5.37
2018-09-19T00:40:36.973Z,6.85
2018-09-19T00:43:04.594Z,5.93
2018-09-19T00:45:32.065Z,7.47
2018-09-19T00:47:59.492Z,6.50
2018-09-19T00:50:26.963Z,6.65
2018-09-19T00:52:54.409Z,6.35
2018-09-19T00:55:21.822Z,6.12
2018-09-19T00:57:49.216Z,7.15
2018-09-19T01:00:17.067Z,6.22
2018-09-19T01:02:44.538Z,5.95
2018-09-19T01:05:11.999Z,5.70
2018-09-19T01:07:39.469Z,5.53
2018-09-19T01:10:06.922Z,4.97
2018-09-19T01:12:34.347Z,6.85
2018-09-19T01:15:01.786Z,5.72
2018-09-19T01:17:29.242Z,6.20
2018-09-19T01:19:56.706Z,6.55
2018-09-19T01:22:24.106Z,7.15
2018-09-19T01:24:51.631Z,6.10
2018-09-19T01:27:19.144Z,6.53
2018-09-19T01:29:46.616Z,6.20
2018-09-19T01:32:14.095Z,6.68
2018-09-19T01:34:41.556Z,5.37
2018-09-19T01:37:08.950Z,5.85
2018-09-19T01:39:36.685Z,6.60
2018-09-19T01:42:04.177Z,5.62
2018-09-19T01:44:31.602Z,6.15
2018-09-19T01:46:59.051Z,6.45
2018-09-19T01:49:26.566Z,5.37
2018-09-19T01:51:54.840Z,6.18
2018-09-19T01:54:22.265Z,6.12
2018-09-19T01:56:49.712Z,5.82
2018-09-19T01:59:17.115Z,6.72
2018-09-19T02:01:44.520Z,5.78
2018-09-19T02:04:11.963Z,5.25
2018-09-19T02:06:39.495Z,6.07
2018-09-19T02:09:06.972Z,5.40
2018-09-19T02:11:34.432Z,5.68
2018-09-19T02:14:01.832Z,6.50
2018-09-19T02:16:29.352Z,5.93
2018-09-19T02:18:56.772Z,5.65
2018-09-19T02:21:24.241Z,5.47
2018-09-19T02:23:51.715Z,5.50
2018-09-19T02:26:19.249Z,5.45
2018-09-19T02:28:46.708Z,5.55
2018-09-19T02:31:14.187Z,5.45
2018-09-19T02:33:41.586Z,5.55
2018-09-19T02:36:09.048Z,5.32
2018-09-19T02:38:36.508Z,6.30
2018-09-19T02:41:03.953Z,5.95
2018-09-19T02:43:31.459Z,6.50
2018-09-19T02:45:58.943Z,6.65
2018-09-19T02:48:26.385Z,5.15
2018-09-19T02:50:53.903Z,5.37
2018-09-19T02:53:21.389Z,5.45
2018-09-19T02:55:48.830Z,5.90
2018-09-19T02:58:16.279Z,7.65
2018-09-19T03:00:43.722Z,5.20
2018-09-19T03:03:11.120Z,6.57
2018-09-19T03:05:38.907Z,6.15
2018-09-19T03:08:06.373Z,5.75
2018-09-19T03:10:33.894Z,6.75
2018-09-19T03:13:01.389Z,5.68
2018-09-19T03:15:28.802Z,5.45
2018-09-19T03:17:56.270Z,6.62
2018-09-19T03:20:23.684Z,6.75
2018-09-19T03:22:51.146Z,5.10
2018-09-19T03:25:19.261Z,7.65
2018-09-19T03:27:46.732Z,5.90
2018-09-19T03:30:14.146Z,5.70
2018-09-19T03:32:41.621Z,5.78
2018-09-19T03:35:09.872Z,5.45
2018-09-19T03:37:37.497Z,4.45
2018-09-19T03:40:04.964Z,5.05
2018-09-19T03:42:32.408Z,4.50
2018-09-19T03:47:33.562Z,6.25
2018-09-19T03:50:01.064Z,5.12
2018-09-19T03:52:28.476Z,5.25
2018-09-19T03:54:55.910Z,6.25
2018-09-19T03:57:23.432Z,4.85
2018-09-19T03:59:50.866Z,4.80
2018-09-19T04:02:18.361Z,5.43
2018-09-19T04:04:45.810Z,4.82
2018-09-19T04:07:13.236Z,5.37
2018-09-19T04:09:40.701Z,6.45
2018-09-19T04:12:08.158Z,6.65
2018-09-19T04:14:35.722Z,5.80
2018-09-19T04:17:03.201Z,5.50
2018-09-19T04:19:30.653Z,5.28
2018-09-19T04:21:58.143Z,6.60
2018-09-19T04:24:25.642Z,6.65
2018-09-19T04:26:53.108Z,6.05
2018-09-19T04:29:20.558Z,5.40
2018-09-19T04:31:48.055Z,6.05
2018-09-19T04:34:15.462Z,6.50
2018-09-19T04:36:42.889Z,6.25
2018-09-19T04:39:10.340Z,4.82
2018-09-19T04:44:11.710Z,6.18
2018-09-19T04:46:39.215Z,5.60
2018-09-19T04:49:06.785Z,4.95
2018-09-19T04:51:34.377Z,5.97
2018-09-19T04:54:01.802Z,6.78
2018-09-19T04:56:29.384Z,6.03
2018-09-19T04:58:56.857Z,6.03
2018-09-19T05:01:24.303Z,5.80
2018-09-19T05:03:51.768Z,6.78
2018-09-19T05:06:19.323Z,5.80
2018-09-19T05:08:46.732Z,6.15
2018-09-19T05:11:14.275Z,7.30
2018-09-19T05:13:42.154Z,6.22
2018-09-19T05:16:09.628Z,6.80
2018-09-19T05:18:37.070Z,5.97
2018-09-19T05:21:04.671Z,5.37
2018-09-19T05:23:32.102Z,6.15
2018-09-19T05:25:59.531Z,6.85
2018-09-19T05:28:27.056Z,9.38
2018-09-19T05:30:54.514Z,6.05
2018-09-19T05:33:23.154Z,6.95
2018-09-19T05:35:50.610Z,5.53
2018-09-19T05:38:18.162Z,6.37
2018-09-19T05:40:45.768Z,5.18
2018-09-19T05:43:14.183Z,5.68
2018-09-19T05:45:41.611Z,5.47
2018-09-19T05:48:09.056Z,7.18
2018-09-19T05:50:36.512Z,6.37
2018-09-19T05:53:04.065Z,5.25
2018-09-19T05:55:31.667Z,6.53
2018-09-19T05:57:59.983Z,5.97
2018-09-19T06:00:27.465Z,6.07
2018-09-19T06:02:54.983Z,6.68
2018-09-19T06:05:22.424Z,6.43
2018-09-19T06:07:49.931Z,6.72
2018-09-19T06:10:17.487Z,6.07
2018-09-19T06:12:44.937Z,7.82
2018-09-19T06:15:12.401Z,6.78
2018-09-19T06:17:39.867Z,5.70
2018-09-19T06:20:07.500Z,5.87
2018-09-19T06:22:34.917Z,6.87
2018-09-19T06:25:02.321Z,6.10
2018-09-19T06:27:30.160Z,7.15
2018-09-19T06:29:57.570Z,6.10
2018-09-19T06:32:25.866Z,7.72
2018-09-19T06:34:53.389Z,7.45
2018-09-19T06:37:20.885Z,8.45
2018-09-19T06:39:48.475Z,6.87
2018-09-19T06:42:15.902Z,7.53
2018-09-19T06:44:43.456Z,8.25
2018-09-19T06:47:10.915Z,6.87
2018-09-19T06:49:38.375Z,6.97
2018-09-19T06:52:05.901Z,7.78
2018-09-19T06:54:33.348Z,6.95
2018-09-19T06:57:00.886Z,8.23
2018-09-19T06:59:28.447Z,7.45
2018-09-19T07:01:55.864Z,8.93
2018-09-19T07:04:23.327Z,8.65
2018-09-19T07:06:51.153Z,8.27
2018-09-19T07:09:18.591Z,8.48
2018-09-19T07:11:46.155Z,7.37
2018-09-19T07:14:13.762Z,8.23
2018-09-19T07:16:41.313Z,8.65
2018-09-19T07:19:08.945Z,9.10
2018-09-19T07:21:36.472Z,7.43
2018-09-19T07:24:05.729Z,7.15
2018-09-19T07:26:33.244Z,8.90
2018-09-19T07:29:00.691Z,8.68
2018-09-19T07:31:28.777Z,8.98
2018-09-19T07:33:56.249Z,6.50
2018-09-19T07:36:23.694Z,9.60
2018-09-19T08:23:00.585Z,16.02
2018-09-19T08:25:28.019Z,18.17
2018-09-19T08:30:22.502Z,20.10
2018-09-19T08:32:50.038Z,22.02
2018-09-19T08:37:44.560Z,19.62
2018-09-19T08:40:11.975Z,20.37
2018-09-19T08:42:39.500Z,22.73
2018-09-19T08:45:07.061Z,27.50
2018-09-19T08:47:34.670Z,24.87
2018-09-19T08:50:02.247Z,26.58
2018-09-19T08:52:29.865Z,23.33
2018-09-19T08:54:57.310Z,20.90
2018-09-19T08:57:24.832Z,21.23
2018-09-19T08:59:52.680Z,16.70
2018-09-19T09:02:20.192Z,20.48
2018-09-19T09:04:47.606Z,17.33
2018-09-19T09:07:15.154Z,24.10
2018-09-19T09:09:42.623Z,18.50
2018-09-19T09:12:10.160Z,22.60
2018-09-19T09:14:37.588Z,17.27
2018-09-19T09:17:05.138Z,15.13
2018-09-19T09:19:32.716Z,16.30
2018-09-19T09:22:00.284Z,15.43
2018-09-19T09:24:27.757Z,15.38
2018-09-19T09:26:55.317Z,14.50
2018-09-19T09:29:22.687Z,11.35
2018-09-19T09:31:50.194Z,12.40
2018-09-19T09:34:17.683Z,11.55
2018-09-19T09:36:45.160Z,12.63
2018-09-19T09:39:12.784Z,11.47
2018-09-19T09:41:40.552Z,10.83
2018-09-19T09:44:08.025Z,9.05
2018-09-19T09:46:35.446Z,14.65
2018-09-19T09:49:02.947Z,13.00
2018-09-19T09:51:30.458Z,11.43
2018-09-19T09:53:57.948Z,11.23
2018-09-19T09:56:25.407Z,10.93
2018-09-19T09:58:53.022Z,12.57
2018-09-19T10:01:20.433Z,10.90
2018-09-19T10:03:47.904Z,11.77
2018-09-19T10:06:15.449Z,11.43
2018-09-19T10:08:42.868Z,10.38
2018-09-19T10:11:10.320Z,10.35
2018-09-19T10:13:37.834Z,9.87
2018-09-19T10:18:32.446Z,8.60
2018-09-19T10:20:59.863Z,9.45
2018-09-19T10:23:27.368Z,10.88
2018-09-19T10:25:54.988Z,11.63
2018-09-19T10:28:22.494Z,9.32
2018-09-19T10:30:50.077Z,9.10
2018-09-19T10:33:17.628Z,9.80
2018-09-19T10:35:45.037Z,10.55
2018-09-19T10:38:12.531Z,9.88
2018-09-19T10:40:40.099Z,12.10
2018-09-19T10:43:07.559Z,10.35
2018-09-19T10:45:35.002Z,10.23
2018-09-19T10:48:02.461Z,10.80
2018-09-19T10:50:30.025Z,11.63
2018-09-19T10:52:57.528Z,8.25
2018-09-19T10:55:25.182Z,11.55
2018-09-19T10:57:52.614Z,9.35
2018-09-19T11:00:20.085Z,9.18
2018-09-19T11:02:47.568Z,10.48
2018-09-19T11:05:15.129Z,10.80
2018-09-19T11:07:42.614Z,10.40
2018-09-19T11:10:10.226Z,11.85
2018-09-19T11:12:37.850Z,13.70
2018-09-19T11:15:05.644Z,15.90
2018-09-19T11:17:33.334Z,13.68
2018-09-19T11:20:00.807Z,13.50
2018-09-19T11:22:29.255Z,16.77
2018-09-19T11:24:56.702Z,13.45
2018-09-19T11:27:24.164Z,13.65
2018-09-19T11:29:51.634Z,12.98
2018-09-19T11:32:19.106Z,11.45
2018-09-19T11:34:46.696Z,9.85
2018-09-19T11:37:14.131Z,10.98
2018-09-19T11:39:41.637Z,12.60
2018-09-19T11:42:09.170Z,14.95
2018-09-19T11:44:36.713Z,14.00
2018-09-19T11:47:04.193Z,9.90
2018-09-19T11:49:31.894Z,13.07
2018-09-19T11:51:59.356Z,10.57
2018-09-19T11:54:27.586Z,11.07
2018-09-19T11:56:55.566Z,14.87
2018-09-19T11:59:23.239Z,14.82
2018-09-19T12:01:50.783Z,10.85
2018-09-19T12:04:18.305Z,14.15
2018-09-19T12:06:47.982Z,13.48
2018-09-19T12:09:15.462Z,16.62
2018-09-19T12:11:43.040Z,13.35
2018-09-19T12:14:10.748Z,11.55
2018-09-19T12:16:38.270Z,12.95
2018-09-19T12:19:05.674Z,12.70
2018-09-19T12:21:33.214Z,9.15
2018-09-19T12:24:00.788Z,11.40
2018-09-19T12:26:28.263Z,13.27
2018-09-19T12:28:56.046Z,12.30
2018-09-19T12:31:23.580Z,14.65
2018-09-19T12:33:51.175Z,9.93
2018-09-19T12:36:18.693Z,9.98
2018-09-19T12:38:47.215Z,9.18
2018-09-19T12:41:14.626Z,9.93
2018-09-19T12:43:42.168Z,10.77
2018-09-19T12:46:10.291Z,10.52
2018-09-19T12:48:37.790Z,8.93
2018-09-19T12:51:05.264Z,11.30
2018-09-19T12:53:32.737Z,11.70
2018-09-19T12:56:01.534Z,11.20
2018-09-19T12:58:28.931Z,10.15
2018-09-19T13:00:56.583Z,9.35
2018-09-19T13:03:24.060Z,9.18
2018-09-19T13:05:51.568Z,11.88
2018-09-19T13:08:19.115Z,15.27
2018-09-19T13:10:46.711Z,14.00
2018-09-19T13:13:14.254Z,12.48
2018-09-19T13:15:42.572Z,11.32
2018-09-19T13:18:09.989Z,12.00
2018-09-19T13:20:37.509Z,12.63
2018-09-19T13:23:04.917Z,14.77
2018-09-19T13:25:32.458Z,11.70
2018-09-19T13:27:59.892Z,12.02
2018-09-19T13:30:27.387Z,12.00
2018-09-19T13:32:54.924Z,10.65
2018-09-19T13:35:22.423Z,12.55
2018-09-19T13:37:49.880Z,11.68
2018-09-19T13:40:17.506Z,10.82
2018-09-19T13:42:46.108Z,10.60
2018-09-19T13:45:13.657Z,10.70
2018-09-19T13:47:41.516Z,13.13
2018-09-19T13:50:08.987Z,11.50
2018-09-19T13:52:36.576Z,10.77
2018-09-19T13:55:04.038Z,10.27
2018-09-19T13:57:31.739Z,10.20
2018-09-19T13:59:59.572Z,8.63
2018-09-19T14:02:27.182Z,9.40
2018-09-19T14:04:54.772Z,7.95
2018-09-19T14:07:22.341Z,8.73
2018-09-19T14:19:49.535Z,6.35
2018-09-19T14:22:17.078Z,6.47
2018-09-19T14:24:44.724Z,6.40
2018-09-19T14:27:12.191Z,7.20
2018-09-19T14:29:39.674Z,9.40
2018-09-19T14:32:07.174Z,6.95
2018-09-19T14:34:34.753Z,7.65
2018-09-19T14:37:02.336Z,7.80
2018-09-19T14:39:29.780Z,12.00
2018-09-19T14:41:57.223Z,7.80
2018-09-19T14:44:24.791Z,9.30
2018-09-19T14:46:52.315Z,8.75
2018-09-19T14:49:19.792Z,7.87
2018-09-19T14:51:47.274Z,6.90
2018-09-19T14:54:14.726Z,5.87
2018-09-19T14:56:42.212Z,8.27
2018-09-19T14:59:09.689Z,8.63
2018-09-19T15:01:37.184Z,8.95
2018-09-19T15:04:04.812Z,7.65
2018-09-19T15:06:32.295Z,7.90
2018-09-19T15:09:00.346Z,10.15
2018-09-19T15:11:27.849Z,10.13
2018-09-19T15:13:55.297Z,10.82
2018-09-19T15:16:23.412Z,10.55
2018-09-19T15:18:50.906Z,8.73
2018-09-19T15:21:18.391Z,9.30
2018-09-19T15:23:45.854Z,9.35
2018-09-19T15:26:14.026Z,11.95
2018-09-19T15:28:41.511Z,8.82
2018-09-19T15:31:08.978Z,8.68
2018-09-19T15:33:36.438Z,11.55
2018-09-19T15:36:03.897Z,8.60
2018-09-19T15:38:31.342Z,8.52
2018-09-19T15:40:58.831Z,9.90
2018-09-19T15:43:26.297Z,9.02
2018-09-19T15:45:53.822Z,9.85
2018-09-19T15:48:21.466Z,11.63
2018-09-19T15:50:48.957Z,9.55
2018-09-19T15:53:16.504Z,10.68
2018-09-19T15:55:43.952Z,12.02
2018-09-19T15:58:11.550Z,10.02
2018-09-19T16:00:39.018Z,12.77
2018-09-19T16:03:06.493Z,8.55
2018-09-19T16:05:33.952Z,8.98
2018-09-19T16:08:01.428Z,5.78
2018-09-19T16:10:29.015Z,8.02
2018-09-19T16:12:56.472Z,8.63
2018-09-19T16:15:24.137Z,8.32
2018-09-19T16:17:51.552Z,7.70
2018-09-19T16:20:18.992Z,8.43
2018-09-19T16:22:46.468Z,17.75
2018-09-19T16:25:14.035Z,13.55
2018-09-19T16:30:14.332Z,18.17
2018-09-19T16:32:41.826Z,8.02
2018-09-19T16:35:09.353Z,8.98
2018-09-19T16:37:36.859Z,20.85
2018-09-19T16:40:05.064Z,9.80
2018-09-19T16:42:32.553Z,7.85
2018-09-19T16:45:00.037Z,8.32
2018-09-19T16:47:27.528Z,8.07
2018-09-19T16:49:55.151Z,9.55
2018-09-19T16:52:22.602Z,9.43
2018-09-19T16:54:50.140Z,10.30
2018-09-19T16:57:17.626Z,9.52
2018-09-19T16:59:45.039Z,11.60
2018-09-19T17:02:12.500Z,10.38
2018-09-19T17:04:39.960Z,10.00
2018-09-19T17:07:07.496Z,12.23
2018-09-19T17:09:35.155Z,9.65
2018-09-19T17:12:02.701Z,11.57
2018-09-19T17:14:30.272Z,12.93
2018-09-19T17:16:57.819Z,12.15
2018-09-19T17:19:25.439Z,8.35
2018-09-19T17:21:52.971Z,8.77
2018-09-19T17:24:20.510Z,9.70
2018-09-19T17:26:48.087Z,9.52
2018-09-19T17:29:15.688Z,7.75
2018-09-19T17:31:43.237Z,8.57
2018-09-19T17:34:10.639Z,7.97
2018-09-19T17:36:38.328Z,9.65
2018-09-19T17:39:06.084Z,9.13
2018-09-19T17:41:33.548Z,7.72
2018-09-19T17:44:01.053Z,8.65
2018-09-19T17:46:28.592Z,8.57
2018-09-19T17:48:56.049Z,9.32
2018-09-19T17:51:23.556Z,8.13
2018-09-19T17:53:51.739Z,7.57
2018-09-19T17:56:19.225Z,12.60
2018-09-19T17:58:46.669Z,13.65
2018-09-19T18:01:14.120Z,8.30
2018-09-19T18:03:41.563Z,7.32
2018-09-19T18:06:09.214Z,9.70
2018-09-19T18:08:36.651Z,9.32
2018-09-19T18:11:04.103Z,8.88
2018-09-19T18:13:32.032Z,8.90
2018-09-19T18:15:59.495Z,8.63
2018-09-19T18:18:27.023Z,10.10
2018-09-19T18:20:54.576Z,7.95
2018-09-19T18:23:22.043Z,10.50
2018-09-19T18:25:49.489Z,12.30
2018-09-19T18:28:16.989Z,10.50
2018-09-19T18:30:44.473Z,12.90
2018-09-19T18:33:11.940Z,15.00
2018-09-19T18:35:40.487Z,9.95
2018-09-19T18:38:08.015Z,13.00
2018-09-19T18:40:35.474Z,14.60
2018-09-19T18:43:02.936Z,13.10
2018-09-19T18:45:30.708Z,14.77
2018-09-19T18:50:25.170Z,15.20
2018-09-19T18:52:52.680Z,13.20
2018-09-19T18:57:47.125Z,16.30
2018-09-19T19:00:14.604Z,15.63
2018-09-19T19:02:42.036Z,14.68
2018-09-19T19:05:09.466Z,11.80
2018-09-19T19:07:37.078Z,14.10
2018-09-19T19:10:04.547Z,14.30
2018-09-19T19:12:31.999Z,17.08
2018-09-19T19:14:59.500Z,14.70
2018-09-19T19:17:26.933Z,10.95
2018-09-19T19:19:54.430Z,10.90
2018-09-19T19:22:21.867Z,15.15
2018-09-19T19:24:49.388Z,14.38
2018-09-19T19:27:16.846Z,17.48
2018-09-19T19:29:44.247Z,15.77
2018-09-19T19:32:11.741Z,12.65
2018-09-19T19:34:39.226Z,12.45
2018-09-19T19:37:06.722Z,11.63
2018-09-19T19:39:34.179Z,13.88
2018-09-19T19:42:02.078Z,12.27
2018-09-19T19:44:30.792Z,9.52
2018-09-19T19:46:58.274Z,10.85
2018-09-19T19:49:25.691Z,9.98
2018-09-19T19:51:53.233Z,13.77
2018-09-19T19:54:20.723Z,11.43
2018-09-19T19:56:48.216Z,10.82
2018-09-19T19:59:15.814Z,14.15
2018-09-19T20:01:43.281Z,10.85
2018-09-19T20:04:10.727Z,12.20
2018-09-19T20:06:38.254Z,9.95
2018-09-19T20:09:05.729Z,9.20
2018-09-19T20:11:33.177Z,9.10
2018-09-19T20:14:00.722Z,10.50
2018-09-19T20:21:23.225Z,10.00
2018-09-19T20:23:50.811Z,9.60
2018-09-19T20:28:45.325Z,8.70
2018-09-19T20:31:12.783Z,8.65
2018-09-19T20:33:40.213Z,8.15
2018-09-19T20:36:07.660Z,8.95
2018-09-19T20:38:35.113Z,8.40
2018-09-19T20:41:02.684Z,8.52
2018-09-19T20:43:30.179Z,8.25
2018-09-19T20:45:57.705Z,7.15
2018-09-19T20:48:25.194Z,9.07
2018-09-19T20:50:52.704Z,9.45
2018-09-19T20:53:20.158Z,8.20
2018-09-19T20:55:47.583Z,9.80
2018-09-19T20:58:15.287Z,9.93
2018-09-19T21:00:42.724Z,8.23
2018-09-19T21:03:10.219Z,8.55
2018-09-19T21:05:37.700Z,6.97
2018-09-19T21:08:05.164Z,8.73
2018-09-19T21:10:33.255Z,9.63
2018-09-19T21:13:00.720Z,8.15
2018-09-19T21:15:28.154Z,9.65
2018-09-19T21:17:55.692Z,8.85
2018-09-19T21:20:23.111Z,9.73
2018-09-19T21:22:50.622Z,8.85
2018-09-19T21:25:18.045Z,9.68
2018-09-19T21:27:45.483Z,8.50
2018-09-19T21:30:12.973Z,8.55
2018-09-19T21:32:40.455Z,7.90
2018-09-19T21:35:07.898Z,8.77
2018-09-19T21:37:35.432Z,9.23
2018-09-19T21:40:02.936Z,8.20
2018-09-19T21:42:30.351Z,9.13
2018-09-19T21:44:57.769Z,7.68
2018-09-19T21:47:25.189Z,7.72
2018-09-19T21:49:52.654Z,7.95
2018-09-19T21:52:20.137Z,7.53
2018-09-19T21:54:47.608Z,9.63
2018-09-19T21:57:15.457Z,8.70
2018-09-19T21:59:42.894Z,8.52
2018-09-19T22:02:10.378Z,7.93
2018-09-19T22:04:37.783Z,7.57
2018-09-19T22:07:05.253Z,8.15
2018-09-19T22:09:32.763Z,7.45
2018-09-19T22:12:00.255Z,8.02
2018-09-19T22:14:27.740Z,8.63
2018-09-19T22:16:55.517Z,6.62
2018-09-19T22:19:22.977Z,8.88
2018-09-19T22:21:50.520Z,7.78
2018-09-19T22:24:18.011Z,8.98
2018-09-19T22:26:45.426Z,9.18
2018-09-19T22:29:12.877Z,8.80
2018-09-19T22:31:40.527Z,8.77
2018-09-19T22:34:07.969Z,8.05
2018-09-19T22:36:35.420Z,7.00
2018-09-19T22:39:02.962Z,7.12
2018-09-19T22:41:31.418Z,8.00
2018-09-19T22:43:58.896Z,5.78
2018-09-19T22:46:26.551Z,6.20
2018-09-19T22:48:54.046Z,6.62
2018-09-19T22:51:21.551Z,6.05
2018-09-19T22:53:49.039Z,6.00
2018-09-19T22:56:16.490Z,6.50
2018-09-19T22:58:43.904Z,5.93
2018-09-19T23:01:11.389Z,5.68
2018-09-19T23:03:38.853Z,4.87
2018-09-19T23:06:06.259Z,8.02
2018-09-19T23:08:33.787Z,5.87
2018-09-19T23:11:01.230Z,6.53
2018-09-19T23:13:28.752Z,7.30
2018-09-19T23:15:56.229Z,7.78
2018-09-19T23:18:23.742Z,7.57
2018-09-19T23:20:51.192Z,5.57
2018-09-19T23:23:18.643Z,8.10
2018-09-19T23:25:46.041Z,7.10
2018-09-19T23:28:14.170Z,6.90
2018-09-19T23:30:41.599Z,6.75
2018-09-19T23:33:09.085Z,7.15
2018-09-19T23:35:36.511Z,7.85
2018-09-19T23:38:03.996Z,7.28
2018-09-19T23:40:31.464Z,6.60
2018-09-19T23:42:58.956Z,8.15
2018-09-19T23:45:26.449Z,7.37
2018-09-19T23:47:53.953Z,6.82
2018-09-19T23:50:21.444Z,6.93
2018-09-19T23:52:48.916Z,6.87
2018-09-19T23:55:16.825Z,7.25
2018-09-19T23:57:44.325Z,7.37
